createdAt,value
2023-03-08T00:02:23.853Z,21.02
2023-03-08T00:04:48.276Z,20.95
2023-03-08T00:07:12.982Z,23.33
2023-03-08T00:09:38.897Z,21.10
2023-03-08T00:12:03.766Z,21.77
2023-03-08T00:14:28.069Z,19.73
2023-03-08T00:16:52.532Z,25.67
2023-03-08T00:19:18.408Z,27.05
2023-03-08T00:21:42.816Z,27.98
2023-03-08T00:24:07.540Z,28.13
2023-03-08T00:26:31.954Z,27.42
2023-03-08T00:28:56.275Z,26.08
2023-03-08T00:31:20.702Z,26.92
2023-03-08T00:33:46.122Z,27.35
2023-03-08T00:36:16.817Z,24.75
2023-03-08T00:38:41.218Z,23.08
2023-03-08T00:41:05.884Z,27.05
2023-03-08T00:43:30.719Z,27.60
2023-03-08T00:45:55.238Z,26.88
2023-03-08T00:48:20.542Z,26.30
2023-03-08T00:50:45.529Z,28.23
2023-03-08T00:53:11.781Z,27.17
2023-03-08T00:55:38.713Z,28.52
2023-03-08T00:58:03.136Z,32.25
2023-03-08T01:00:28.114Z,32.35
2023-03-08T01:02:56.020Z,28.63
2023-03-08T01:05:21.095Z,24.40
2023-03-08T01:07:45.581Z,23.75
2023-03-08T01:10:12.698Z,22.83
2023-03-08T01:12:38.005Z,24.35
2023-03-08T01:15:02.673Z,24.55
2023-03-08T01:17:28.171Z,23.73
2023-03-08T01:19:52.592Z,26.27
2023-03-08T01:22:16.971Z,25.45
2023-03-08T01:24:45.065Z,24.45
2023-03-08T01:27:10.998Z,25.75
2023-03-08T01:29:35.322Z,26.02
2023-03-08T01:31:59.997Z,26.58
2023-03-08T01:34:24.435Z,26.65
2023-03-08T01:36:48.808Z,26.35
2023-03-08T01:39:15.695Z,26.20
2023-03-08T01:41:41.104Z,26.98
2023-03-08T01:44:11.679Z,26.00
2023-03-08T01:46:36.715Z,24.83
2023-03-08T01:49:33.968Z,24.55
2023-03-08T01:52:04.360Z,25.40
2023-03-08T01:54:34.363Z,25.08
2023-03-08T01:57:02.815Z,23.95
2023-03-08T01:59:29.150Z,25.33
2023-03-08T02:01:54.168Z,24.02
2023-03-08T02:04:19.961Z,24.27
2023-03-08T02:06:46.073Z,24.40
2023-03-08T02:09:14.431Z,24.25
2023-03-08T02:11:42.343Z,24.35
2023-03-08T02:14:07.460Z,25.23
2023-03-08T02:16:33.696Z,23.23
2023-03-08T02:19:00.516Z,24.80
2023-03-08T02:21:26.044Z,22.92
2023-03-08T02:23:51.842Z,24.13
2023-03-08T02:26:16.599Z,24.08
2023-03-08T02:28:41.189Z,25.45
2023-03-08T02:31:06.035Z,25.75
2023-03-08T02:33:30.662Z,28.35
2023-03-08T02:35:55.293Z,25.73
2023-03-08T02:38:22.085Z,29.52
2023-03-08T02:40:48.587Z,27.42
2023-03-08T02:43:14.043Z,27.15
2023-03-08T02:45:38.702Z,27.00
2023-03-08T02:48:03.111Z,29.67
2023-03-08T02:50:28.046Z,30.88
2023-03-08T02:52:52.439Z,29.35
2023-03-08T02:55:17.069Z,30.80
2023-03-08T02:57:42.868Z,27.08
2023-03-08T03:00:08.933Z,28.77
2023-03-08T03:02:34.212Z,25.83
2023-03-08T03:04:58.679Z,25.77
2023-03-08T03:07:24.673Z,27.75
2023-03-08T03:09:49.696Z,28.52
2023-03-08T03:12:15.026Z,29.00
2023-03-08T03:14:41.768Z,27.98
2023-03-08T03:17:06.806Z,28.00
2023-03-08T03:19:31.317Z,28.17
2023-03-08T03:21:55.952Z,26.85
2023-03-08T03:24:21.027Z,29.27
2023-03-08T03:26:51.948Z,28.02
2023-03-08T03:29:17.450Z,29.45
2023-03-08T03:31:48.705Z,29.02
2023-03-08T03:34:14.681Z,28.58
2023-03-08T03:36:41.057Z,27.17
2023-03-08T03:39:05.632Z,25.20
2023-03-08T03:41:33.094Z,28.67
2023-03-08T03:44:06.483Z,28.45
2023-03-08T03:46:32.235Z,28.02
2023-03-08T03:48:59.052Z,28.63
2023-03-08T03:51:29.521Z,29.75
2023-03-08T03:54:07.352Z,27.27
2023-03-08T03:56:32.837Z,27.55
2023-03-08T03:58:58.387Z,26.77
2023-03-08T04:01:27.322Z,27.13
2023-03-08T04:03:59.595Z,27.48
2023-03-08T04:06:27.233Z,26.98
2023-03-08T04:08:54.531Z,27.23
2023-03-08T04:11:24.012Z,28.70
2023-03-08T04:13:48.927Z,28.80
2023-03-08T04:16:16.296Z,28.05
2023-03-08T04:18:41.375Z,28.65
2023-03-08T04:21:08.784Z,26.60
2023-03-08T04:23:33.385Z,27.63
2023-03-08T04:26:00.617Z,29.58
2023-03-08T04:28:25.569Z,31.30
2023-03-08T04:30:50.142Z,28.67
2023-03-08T04:33:15.507Z,30.58
2023-03-08T04:35:44.838Z,28.05
2023-03-08T04:38:12.216Z,29.17
2023-03-08T04:40:58.738Z,28.63
2023-03-08T04:43:26.320Z,31.13
2023-03-08T04:45:52.352Z,31.63
2023-03-08T04:48:18.423Z,34.28
2023-03-08T04:50:45.059Z,28.50
2023-03-08T04:53:12.006Z,29.55
2023-03-08T04:55:38.186Z,27.08
2023-03-08T04:58:03.845Z,28.95
2023-03-08T05:00:30.373Z,27.58
2023-03-08T05:02:55.642Z,26.98
2023-03-08T05:05:23.075Z,27.95
2023-03-08T05:07:50.657Z,27.52
2023-03-08T05:10:16.909Z,29.52
2023-03-08T05:12:41.328Z,29.50
2023-03-08T05:15:07.561Z,29.45
2023-03-08T05:17:32.603Z,30.60
2023-03-08T05:19:57.110Z,31.48
2023-03-08T05:22:29.223Z,30.67
2023-03-08T05:24:55.868Z,29.05
2023-03-08T05:27:22.152Z,30.55
2023-03-08T05:29:47.169Z,27.95
2023-03-08T05:32:12.636Z,27.35
2023-03-08T05:34:38.100Z,29.08
2023-03-08T05:37:05.437Z,28.33
2023-03-08T05:39:32.425Z,29.00
2023-03-08T05:42:02.348Z,29.65
2023-03-08T05:44:36.085Z,30.50
2023-03-08T05:47:01.221Z,30.83
2023-03-08T05:49:26.133Z,29.80
2023-03-08T05:51:51.002Z,29.08
2023-03-08T05:54:17.048Z,32.40
2023-03-08T05:56:44.572Z,32.00
2023-03-08T05:59:19.365Z,32.67
2023-03-08T06:01:45.876Z,32.33
2023-03-08T06:04:19.511Z,33.25
2023-03-08T06:06:46.997Z,32.95
2023-03-08T06:09:11.410Z,35.10
2023-03-08T06:11:38.814Z,34.42
2023-03-08T06:14:03.973Z,33.92
2023-03-08T06:16:32.620Z,35.28
2023-03-08T06:18:58.456Z,36.67
2023-03-08T06:21:23.825Z,34.00
2023-03-08T06:23:55.403Z,34.75
2023-03-08T06:26:22.410Z,35.35
2023-03-08T06:28:47.298Z,36.03
2023-03-08T06:31:14.743Z,34.55
2023-03-08T06:33:39.419Z,35.72
2023-03-08T06:36:07.756Z,36.47
2023-03-08T06:38:34.675Z,37.30
2023-03-08T06:40:59.247Z,38.85
2023-03-08T06:43:24.443Z,39.55
2023-03-08T06:45:49.179Z,39.05
2023-03-08T06:48:14.439Z,42.22
2023-03-08T06:50:39.177Z,41.70
2023-03-08T06:53:04.984Z,39.45
2023-03-08T06:55:52.081Z,39.40
2023-03-08T06:58:17.076Z,39.90
2023-03-08T07:00:41.456Z,40.55
2023-03-08T07:03:06.090Z,38.72
2023-03-08T07:05:30.735Z,41.38
2023-03-08T07:07:55.318Z,40.20
2023-03-08T07:10:23.000Z,37.65
2023-03-08T07:12:50.397Z,36.88
2023-03-08T07:15:15.930Z,27.08
2023-03-08T07:17:40.335Z,23.80
2023-03-08T07:20:06.538Z,21.45
2023-03-08T07:22:31.783Z,19.63
2023-03-08T07:24:56.102Z,20.23
2023-03-08T07:27:21.910Z,19.98
2023-03-08T07:29:46.204Z,20.45
2023-03-08T07:32:10.714Z,19.20
2023-03-08T07:34:35.346Z,20.65
2023-03-08T07:36:59.762Z,19.65
2023-03-08T07:39:24.149Z,20.50
2023-03-08T07:41:50.000Z,21.65
2023-03-08T07:44:15.777Z,21.17
2023-03-08T07:46:40.370Z,22.92
2023-03-08T07:49:10.453Z,23.08
2023-03-08T07:53:58.937Z,23.55
2023-03-08T07:56:23.715Z,23.92
2023-03-08T07:58:49.663Z,27.75
2023-03-08T08:01:16.027Z,26.17
2023-03-08T08:03:42.122Z,24.92
2023-03-08T08:06:07.686Z,23.90
2023-03-08T08:08:32.060Z,24.95
2023-03-08T08:10:56.661Z,25.52
2023-03-08T08:13:21.066Z,23.35
2023-03-08T08:15:45.456Z,23.63
2023-03-08T08:18:11.457Z,22.95
2023-03-08T08:20:35.971Z,23.20
2023-03-08T08:23:00.547Z,22.88
2023-03-08T08:25:24.999Z,21.95
2023-03-08T08:27:51.907Z,22.20
2023-03-08T08:30:16.531Z,21.35
2023-03-08T08:32:41.103Z,20.15
2023-03-08T08:35:08.059Z,17.17
2023-03-08T08:37:34.014Z,17.58
2023-03-08T08:39:58.514Z,15.85
2023-03-08T08:42:23.097Z,15.85
2023-03-08T08:44:47.670Z,16.15
2023-03-08T08:47:12.171Z,16.10
2023-03-08T08:49:36.696Z,17.92
2023-03-08T08:52:02.502Z,15.43
2023-03-08T08:54:27.044Z,17.50
2023-03-08T08:56:51.580Z,17.48
2023-03-08T08:59:16.531Z,17.42
2023-03-08T09:01:43.967Z,15.93
2023-03-08T09:04:08.641Z,15.70
2023-03-08T09:06:33.207Z,16.88
2023-03-08T09:09:01.885Z,16.95
2023-03-08T09:11:28.737Z,15.95
2023-03-08T09:13:53.912Z,17.25
2023-03-08T09:16:23.300Z,16.60
2023-03-08T09:18:48.276Z,16.10
2023-03-08T09:21:12.967Z,14.70
2023-03-08T09:23:37.378Z,12.30
2023-03-08T09:26:04.803Z,13.13
2023-03-08T09:28:29.230Z,12.50
2023-03-08T09:30:53.762Z,12.25
2023-03-08T09:33:18.673Z,11.90
2023-03-08T09:35:43.093Z,12.30
2023-03-08T09:38:07.640Z,12.48
2023-03-08T09:40:41.456Z,13.07
2023-03-08T09:43:08.468Z,12.48
2023-03-08T09:45:33.548Z,12.25
2023-03-08T09:48:05.337Z,12.88
2023-03-08T09:50:37.028Z,11.85
2023-03-08T09:53:10.655Z,12.85
2023-03-08T09:55:37.617Z,13.23
2023-03-08T09:58:06.025Z,12.02
2023-03-08T10:00:35.203Z,12.30
2023-03-08T10:03:25.678Z,11.52
2023-03-08T10:05:56.446Z,12.43
2023-03-08T10:08:25.950Z,12.25
2023-03-08T10:11:00.450Z,11.52
2023-03-08T10:13:38.950Z,10.27
2023-03-08T10:16:13.052Z,9.88
2023-03-08T10:18:44.045Z,9.77
2023-03-08T10:21:12.363Z,9.65
2023-03-08T10:23:41.416Z,10.05
2023-03-08T10:26:10.792Z,9.10
2023-03-08T10:28:35.417Z,7.70
2023-03-08T10:31:02.034Z,6.80
2023-03-08T10:33:32.876Z,6.93
2023-03-08T10:36:02.394Z,7.05
2023-03-08T10:38:29.724Z,8.35
2023-03-08T10:41:01.730Z,7.18
2023-03-08T10:43:29.566Z,7.32
2023-03-08T10:46:01.137Z,6.50
2023-03-08T10:48:25.623Z,7.80
2023-03-08T10:51:01.051Z,6.20
2023-03-08T10:53:29.410Z,7.00
2023-03-08T10:55:54.441Z,5.65
2023-03-08T10:58:35.018Z,5.97
2023-03-08T11:01:01.529Z,6.05
2023-03-08T11:03:27.077Z,5.75
2023-03-08T11:06:01.244Z,5.07
2023-03-08T11:08:28.981Z,5.93
2023-03-08T11:11:08.128Z,5.65
2023-03-08T11:13:35.492Z,5.97
2023-03-08T11:16:12.898Z,5.15
2023-03-08T11:18:50.621Z,4.10
2023-03-08T11:21:26.856Z,4.00
2023-03-08T11:24:02.188Z,4.15
2023-03-08T11:26:35.252Z,5.32
2023-03-08T11:29:20.266Z,4.10
2023-03-08T11:31:51.905Z,3.75
2023-03-08T11:34:27.861Z,4.00
2023-03-08T11:37:01.922Z,4.47
2023-03-08T11:39:32.932Z,3.85
2023-03-08T11:42:04.952Z,3.90
2023-03-08T11:44:45.174Z,3.75
2023-03-08T11:47:36.171Z,3.65
2023-03-08T11:50:10.171Z,3.95
2023-03-08T11:52:44.704Z,4.20
2023-03-08T11:55:30.093Z,4.10
2023-03-08T11:57:59.344Z,3.95
2023-03-08T12:00:30.964Z,3.05
2023-03-08T12:02:58.470Z,3.78
2023-03-08T12:05:29.259Z,3.22
2023-03-08T12:07:59.818Z,2.95
2023-03-08T12:10:27.538Z,3.10
2023-03-08T12:12:55.943Z,3.45
2023-03-08T12:15:27.933Z,3.30
2023-03-08T12:17:55.674Z,3.75
2023-03-08T12:20:23.534Z,3.28
2023-03-08T12:22:51.722Z,3.10
2023-03-08T12:25:26.467Z,3.50
2023-03-08T12:27:55.488Z,2.90
2023-03-08T12:30:29.599Z,9.27
2023-03-08T12:32:58.768Z,3.42
2023-03-08T12:35:29.651Z,3.60
2023-03-08T12:37:59.550Z,3.42
2023-03-08T12:40:38.331Z,3.55
2023-03-08T12:43:08.897Z,3.30
2023-03-08T12:45:33.961Z,3.38
2023-03-08T12:48:10.615Z,3.10
2023-03-08T12:50:42.824Z,3.13
2023-03-08T12:53:25.718Z,3.53
2023-03-08T12:56:06.607Z,4.47
2023-03-08T12:58:36.669Z,3.45
2023-03-08T13:01:02.916Z,3.47
2023-03-08T13:03:36.939Z,3.67
2023-03-08T13:06:01.640Z,3.50
2023-03-08T13:08:34.992Z,3.30
2023-03-08T13:11:08.103Z,3.20
2023-03-08T13:13:45.080Z,2.58
2023-03-08T13:16:30.209Z,2.72
2023-03-08T13:19:13.509Z,2.55
2023-03-08T13:21:42.876Z,3.08
2023-03-08T13:24:14.935Z,3.67
2023-03-08T13:27:07.791Z,2.70
2023-03-08T13:29:34.299Z,3.88
2023-03-08T13:31:58.922Z,2.63
2023-03-08T13:34:29.443Z,4.03
2023-03-08T13:36:53.889Z,3.00
2023-03-08T13:39:20.685Z,2.17
2023-03-08T13:41:47.650Z,2.88
2023-03-08T13:44:17.761Z,3.00
2023-03-08T13:46:43.205Z,3.25
2023-03-08T13:49:15.952Z,2.40
2023-03-08T13:51:40.580Z,3.05
2023-03-08T13:54:05.095Z,3.17
2023-03-08T13:56:30.179Z,2.88
2023-03-08T13:59:00.711Z,2.75
2023-03-08T14:01:27.380Z,3.03
2023-03-08T14:03:54.483Z,2.78
2023-03-08T14:06:22.624Z,2.47
2023-03-08T14:08:48.038Z,2.63
2023-03-08T14:11:17.563Z,3.05
2023-03-08T14:13:44.007Z,2.72
2023-03-08T14:16:23.874Z,3.97
2023-03-08T14:18:48.932Z,2.42
2023-03-08T14:21:18.280Z,2.95
2023-03-08T14:23:44.231Z,2.90
2023-03-08T14:26:23.922Z,2.58
2023-03-08T14:28:48.466Z,3.15
2023-03-08T14:31:28.406Z,2.80
2023-03-08T14:36:24.167Z,3.20
2023-03-08T14:38:51.051Z,2.67
2023-03-08T14:41:16.394Z,2.65
2023-03-08T14:43:40.866Z,2.75
2023-03-08T14:46:09.194Z,2.60
2023-03-08T14:48:36.134Z,3.45
2023-03-08T14:51:02.902Z,3.08
2023-03-08T14:53:32.552Z,2.72
2023-03-08T14:55:57.637Z,3.13
2023-03-08T14:58:30.702Z,2.80
2023-03-08T15:00:57.323Z,2.95
2023-03-08T15:03:21.766Z,2.90
2023-03-08T15:05:47.712Z,3.35
2023-03-08T15:08:14.349Z,3.10
2023-03-08T15:10:40.195Z,3.78
2023-03-08T15:13:05.585Z,3.30
2023-03-08T15:15:30.353Z,2.83
2023-03-08T15:17:54.791Z,2.85
2023-03-08T15:20:20.335Z,2.67
2023-03-08T15:22:50.216Z,3.22
2023-03-08T15:25:16.816Z,2.95
2023-03-08T15:27:41.410Z,2.97
2023-03-08T15:30:14.158Z,3.40
2023-03-08T15:32:38.640Z,3.80
2023-03-08T15:35:03.008Z,3.13
2023-03-08T15:37:28.135Z,3.15
2023-03-08T15:39:54.024Z,4.30
2023-03-08T15:42:20.729Z,3.00
2023-03-08T15:44:45.088Z,3.90
2023-03-08T15:47:11.211Z,3.50
2023-03-08T15:49:35.595Z,3.08
2023-03-08T15:52:00.166Z,3.67
2023-03-08T15:54:24.616Z,3.92
2023-03-08T15:56:51.498Z,3.85
2023-03-08T15:59:15.860Z,4.57
2023-03-08T16:01:40.307Z,4.65
2023-03-08T16:04:04.681Z,4.20
2023-03-08T16:06:29.057Z,5.00
2023-03-08T16:08:53.702Z,5.63
2023-03-08T16:11:22.300Z,5.50
2023-03-08T16:13:50.979Z,4.90
2023-03-08T16:16:15.503Z,4.70
2023-03-08T16:18:40.646Z,5.55
2023-03-08T16:21:09.783Z,5.88
2023-03-08T16:23:34.259Z,5.90
2023-03-08T16:26:14.759Z,6.55
2023-03-08T16:28:40.572Z,6.57
2023-03-08T16:31:06.775Z,6.57
2023-03-08T16:33:31.499Z,7.00
2023-03-08T16:35:56.648Z,7.05
2023-03-08T16:38:24.552Z,7.15
2023-03-08T16:40:49.207Z,8.98
2023-03-08T16:43:14.079Z,8.45
2023-03-08T16:45:38.824Z,8.55
2023-03-08T16:48:05.979Z,7.10
2023-03-08T16:50:31.008Z,7.65
2023-03-08T16:52:56.088Z,7.72
2023-03-08T16:55:21.904Z,7.43
2023-03-08T16:57:46.226Z,7.72
2023-03-08T17:00:15.688Z,7.38
2023-03-08T17:02:41.279Z,7.70
2023-03-08T17:05:08.989Z,7.13
2023-03-08T17:07:33.455Z,6.10
2023-03-08T17:09:59.266Z,4.82
2023-03-08T17:12:23.653Z,6.13
2023-03-08T17:14:48.293Z,5.38
2023-03-08T17:17:13.884Z,5.38
2023-03-08T17:19:40.774Z,5.25
2023-03-08T17:22:06.833Z,5.63
2023-03-08T17:24:32.384Z,5.78
2023-03-08T17:26:57.236Z,5.47
2023-03-08T17:29:21.878Z,5.88
2023-03-08T17:31:46.460Z,5.72
2023-03-08T17:34:10.878Z,6.60
2023-03-08T17:36:35.478Z,6.07
2023-03-08T17:39:01.274Z,6.65
2023-03-08T17:41:26.001Z,6.70
2023-03-08T17:43:50.531Z,6.45
2023-03-08T17:46:16.835Z,7.15
2023-03-08T17:48:41.191Z,6.72
2023-03-08T17:51:07.192Z,6.55
2023-03-08T17:53:31.467Z,6.97
2023-03-08T17:56:00.179Z,7.30
2023-03-08T17:58:24.559Z,6.78
2023-03-08T18:00:49.651Z,8.18
2023-03-08T18:03:13.910Z,8.23
2023-03-08T18:05:38.363Z,10.60
2023-03-08T18:08:03.057Z,11.30
2023-03-08T18:10:27.731Z,9.77
2023-03-08T18:12:53.526Z,9.93
2023-03-08T18:15:18.080Z,8.82
2023-03-08T18:17:42.921Z,9.57
2023-03-08T18:20:09.955Z,9.48
2023-03-08T18:22:34.226Z,9.52
2023-03-08T18:24:58.684Z,9.60
2023-03-08T18:27:23.065Z,8.68
2023-03-08T18:29:49.060Z,9.50
2023-03-08T18:32:13.808Z,9.25
2023-03-08T18:34:39.314Z,9.68
2023-03-08T18:37:04.148Z,8.80
2023-03-08T18:39:28.665Z,9.80
2023-03-08T18:41:56.784Z,10.95
2023-03-08T18:44:21.933Z,10.02
2023-03-08T18:46:47.779Z,10.75
2023-03-08T18:49:14.037Z,13.52
2023-03-08T18:51:40.545Z,12.65
2023-03-08T18:54:05.718Z,11.30
2023-03-08T18:56:31.326Z,10.15
2023-03-08T18:58:56.776Z,10.45
2023-03-08T19:01:21.429Z,11.85
2023-03-08T19:03:47.490Z,12.50
2023-03-08T19:06:12.968Z,13.70
2023-03-08T19:08:37.745Z,13.05
2023-03-08T19:11:11.554Z,11.82
2023-03-08T19:13:35.981Z,11.40
2023-03-08T19:16:00.326Z,11.57
2023-03-08T19:18:24.728Z,11.63
2023-03-08T19:20:50.500Z,11.50
2023-03-08T19:23:14.952Z,12.20
2023-03-08T19:26:00.150Z,13.25
2023-03-08T19:28:24.743Z,13.88
2023-03-08T19:30:50.222Z,15.20
2023-03-08T19:33:29.811Z,14.10
2023-03-08T19:35:56.671Z,14.73
2023-03-08T19:38:22.489Z,15.30
2023-03-08T19:40:47.222Z,15.98
2023-03-08T19:43:11.664Z,14.52
2023-03-08T19:45:36.198Z,14.60
2023-03-08T19:48:00.636Z,14.65
2023-03-08T19:50:25.185Z,15.05
2023-03-08T19:52:50.942Z,16.00
2023-03-08T19:55:15.343Z,13.60
2023-03-08T19:57:41.757Z,13.32
2023-03-08T20:00:09.934Z,12.40
2023-03-08T20:02:37.833Z,12.32
2023-03-08T20:05:03.812Z,12.13
2023-03-08T20:07:29.845Z,12.80
2023-03-08T20:09:58.854Z,11.10
2023-03-08T20:12:27.460Z,11.70
2023-03-08T20:14:52.273Z,11.15
2023-03-08T20:17:16.755Z,11.73
2023-03-08T20:19:41.183Z,11.57
2023-03-08T20:22:06.017Z,10.50
2023-03-08T20:24:30.508Z,10.70
2023-03-08T20:26:56.997Z,11.98
2023-03-08T20:29:21.367Z,12.20
2023-03-08T20:31:48.190Z,12.30
2023-03-08T20:34:13.111Z,14.02
2023-03-08T20:36:38.094Z,14.40
2023-03-08T20:39:02.551Z,13.48
2023-03-08T20:41:27.516Z,13.45
2023-03-08T20:43:55.537Z,13.68
2023-03-08T20:46:22.878Z,12.63
2023-03-08T20:48:47.825Z,12.73
2023-03-08T20:51:14.282Z,11.88
2023-03-08T20:53:39.871Z,12.27
2023-03-08T20:56:06.856Z,12.32
2023-03-08T20:58:31.397Z,12.60
2023-03-08T21:00:57.309Z,12.63
2023-03-08T21:03:22.483Z,12.48
2023-03-08T21:05:47.025Z,12.85
2023-03-08T21:08:11.712Z,12.13
2023-03-08T21:10:36.636Z,12.98
2023-03-08T21:13:01.402Z,12.85
2023-03-08T21:15:26.138Z,12.82
2023-03-08T21:17:53.263Z,12.38
2023-03-08T21:20:18.348Z,11.98
2023-03-08T21:22:44.043Z,12.40
2023-03-08T21:25:09.067Z,13.10
2023-03-08T21:27:35.477Z,11.38
2023-03-08T21:30:00.735Z,13.43
2023-03-08T21:32:27.793Z,11.80
2023-03-08T21:34:54.239Z,12.80
2023-03-08T21:37:18.670Z,12.38
2023-03-08T21:39:43.039Z,11.88
2023-03-08T21:42:07.441Z,13.45
2023-03-08T21:44:32.178Z,12.63
2023-03-08T21:46:56.673Z,12.93
2023-03-08T21:49:22.688Z,12.77
2023-03-08T21:51:48.558Z,11.38
2023-03-08T21:54:13.204Z,11.43
2023-03-08T21:56:37.670Z,10.80
2023-03-08T21:59:02.189Z,11.48
2023-03-08T22:01:28.622Z,10.95
2023-03-08T22:03:53.310Z,11.38
2023-03-08T22:06:17.834Z,12.27
2023-03-08T22:08:43.697Z,11.13
2023-03-08T22:11:08.260Z,10.25
2023-03-08T22:13:32.961Z,10.93
2023-03-08T22:15:57.276Z,10.10
2023-03-08T22:18:22.535Z,10.57
2023-03-08T22:20:46.916Z,9.93
2023-03-08T22:23:11.425Z,9.90
2023-03-08T22:25:37.232Z,10.20
2023-03-08T22:28:01.756Z,10.65
2023-03-08T22:30:26.116Z,10.10
2023-03-08T22:32:50.706Z,10.18
2023-03-08T22:35:15.762Z,10.60
2023-03-08T22:37:40.669Z,12.40
2023-03-08T22:40:06.630Z,10.90
2023-03-08T22:42:33.861Z,10.30
2023-03-08T22:44:58.307Z,11.07
2023-03-08T22:47:22.744Z,11.73
2023-03-08T22:49:51.227Z,11.65
2023-03-08T22:52:15.724Z,10.02
2023-03-08T22:54:40.156Z,11.40
2023-03-08T22:57:04.856Z,11.02
2023-03-08T22:59:30.686Z,11.23
2023-03-08T23:01:55.630Z,9.95
2023-03-08T23:04:22.417Z,10.07
2023-03-08T23:06:47.677Z,10.35
2023-03-08T23:09:12.865Z,10.25
2023-03-08T23:11:38.454Z,9.52
2023-03-08T23:14:03.160Z,9.82
2023-03-08T23:16:29.098Z,10.88
2023-03-08T23:18:55.020Z,9.07
2023-03-08T23:21:22.112Z,8.73
2023-03-08T23:23:46.929Z,9.57
2023-03-08T23:26:15.109Z,9.60
2023-03-08T23:28:39.709Z,9.10
2023-03-08T23:31:08.785Z,8.93
2023-03-08T23:33:34.522Z,8.38
2023-03-08T23:35:59.275Z,7.88
2023-03-08T23:38:23.665Z,7.50
2023-03-08T23:40:48.103Z,7.30
2023-03-08T23:43:12.488Z,7.60
2023-03-08T23:45:39.519Z,8.50
2023-03-08T23:48:03.867Z,7.35
2023-03-08T23:50:29.654Z,7.93
2023-03-08T23:52:54.016Z,8.15
2023-03-08T23:55:18.474Z,7.40
2023-03-08T23:57:42.882Z,7.55
